createdAt,value
2022-10-06T00:00:42.567Z,65.40
2022-10-06T00:03:09.218Z,65.70
2022-10-06T00:05:35.884Z,65.90
2022-10-06T00:08:03.189Z,65.60
2022-10-06T00:10:30.591Z,65.80
2022-10-06T00:12:57.943Z,65.90
2022-10-06T00:15:27.439Z,66.00
2022-10-06T00:17:54.958Z,65.90
2022-10-06T00:20:21.821Z,66.10
2022-10-06T00:22:49.975Z,66.00
2022-10-06T00:25:21.745Z,65.90
2022-10-06T00:27:50.432Z,65.70
2022-10-06T00:30:18.626Z,65.60
2022-10-06T00:32:54.285Z,65.60
2022-10-06T00:35:21.734Z,65.20
2022-10-06T00:37:48.828Z,64.80
2022-10-06T00:40:15.960Z,64.80
2022-10-06T00:43:06.196Z,64.80
2022-10-06T00:45:39.190Z,64.70
2022-10-06T00:48:18.746Z,64.90
2022-10-06T00:50:46.439Z,64.40
2022-10-06T00:53:14.552Z,63.90
2022-10-06T00:55:41.267Z,64.00
2022-10-06T00:58:08.118Z,64.20
2022-10-06T01:00:35.252Z,64.30
2022-10-06T01:03:07.644Z,64.10
2022-10-06T01:05:41.472Z,63.60
2022-10-06T01:08:08.879Z,63.60
2022-10-06T01:10:35.677Z,63.70
2022-10-06T01:13:02.744Z,63.90
2022-10-06T01:15:29.644Z,63.40
2022-10-06T01:18:03.574Z,62.90
2022-10-06T01:20:30.986Z,62.90
2022-10-06T01:25:29.602Z,62.70
2022-10-06T01:27:58.476Z,62.30
2022-10-06T01:30:32.843Z,62.60
2022-10-06T01:32:59.616Z,62.60
2022-10-06T01:35:26.389Z,62.80
2022-10-06T01:37:54.713Z,63.70
2022-10-06T01:40:22.400Z,62.30
2022-10-06T01:42:49.020Z,62.00
2022-10-06T01:45:15.729Z,61.60
2022-10-06T01:47:42.518Z,61.40
2022-10-06T01:50:09.327Z,62.30
2022-10-06T01:52:36.591Z,61.30
2022-10-06T01:55:03.864Z,61.20
2022-10-06T01:57:30.539Z,60.70
2022-10-06T01:59:57.268Z,60.50
2022-10-06T02:02:24.118Z,60.80
2022-10-06T02:04:50.937Z,60.30
2022-10-06T02:07:17.629Z,60.30
2022-10-06T02:09:44.811Z,60.20
2022-10-06T02:12:11.522Z,60.40
2022-10-06T02:14:38.279Z,60.20
2022-10-06T02:17:05.021Z,60.10
2022-10-06T02:19:31.659Z,60.10
2022-10-06T02:21:58.756Z,60.20
2022-10-06T02:24:25.508Z,60.20
2022-10-06T02:26:53.231Z,60.60
2022-10-06T02:29:20.488Z,61.20
2022-10-06T02:31:47.742Z,61.60
2022-10-06T02:34:14.490Z,60.90
2022-10-06T02:36:41.219Z,60.70
2022-10-06T02:39:07.972Z,60.30
2022-10-06T02:41:34.865Z,60.30
2022-10-06T02:44:01.801Z,60.40
2022-10-06T02:46:28.474Z,60.40
2022-10-06T02:48:55.157Z,60.30
2022-10-06T02:51:23.635Z,60.20
2022-10-06T02:53:51.318Z,60.00
2022-10-06T02:56:23.133Z,60.20
2022-10-06T02:58:51.229Z,60.00
2022-10-06T03:01:22.032Z,59.80
2022-10-06T03:03:49.020Z,60.00
2022-10-06T03:06:24.525Z,60.00
2022-10-06T03:08:51.149Z,59.80
2022-10-06T03:11:24.482Z,59.50
2022-10-06T03:13:52.176Z,59.30
2022-10-06T03:16:22.346Z,59.40
2022-10-06T03:18:50.788Z,59.60
2022-10-06T03:21:19.513Z,59.40
2022-10-06T03:23:48.334Z,59.50
2022-10-06T03:26:17.657Z,59.30
2022-10-06T03:28:45.050Z,59.40
2022-10-06T03:31:11.922Z,59.90
2022-10-06T03:33:38.840Z,60.00
2022-10-06T03:36:06.945Z,59.60
2022-10-06T03:38:35.005Z,59.60
2022-10-06T03:41:10.312Z,59.40
2022-10-06T03:43:37.774Z,59.40
2022-10-06T03:46:05.745Z,59.20
2022-10-06T03:48:34.607Z,59.20
2022-10-06T03:51:12.278Z,59.90
2022-10-06T03:53:39.531Z,59.70
2022-10-06T03:56:17.772Z,59.40
2022-10-06T03:58:46.599Z,59.10
2022-10-06T04:01:16.596Z,59.20
2022-10-06T04:03:44.033Z,59.00
2022-10-06T04:06:18.180Z,58.60
2022-10-06T04:08:47.242Z,58.30
2022-10-06T04:11:16.143Z,58.40
2022-10-06T04:13:44.688Z,57.70
2022-10-06T04:16:18.880Z,57.00
2022-10-06T04:18:49.060Z,60.40
2022-10-06T04:21:16.282Z,57.50
2022-10-06T04:23:43.463Z,56.90
2022-10-06T04:26:18.696Z,56.30
2022-10-06T04:28:46.010Z,55.90
2022-10-06T04:31:16.998Z,56.10
2022-10-06T04:33:45.739Z,55.80
2022-10-06T04:36:24.542Z,55.80
2022-10-06T04:38:56.270Z,55.50
2022-10-06T04:41:24.648Z,55.60
2022-10-06T04:43:51.904Z,55.70
2022-10-06T04:46:44.391Z,55.90
2022-10-06T04:49:07.166Z,56.10
2022-10-06T04:51:33.863Z,55.60
2022-10-06T04:54:01.124Z,55.20
2022-10-06T04:56:29.832Z,55.30
2022-10-06T04:58:57.496Z,55.10
2022-10-06T05:01:30.241Z,54.80
2022-10-06T05:03:59.256Z,54.60
2022-10-06T05:06:29.435Z,55.00
2022-10-06T05:09:01.275Z,55.10
2022-10-06T05:11:29.194Z,55.70
2022-10-06T05:13:57.050Z,55.60
2022-10-06T05:16:25.576Z,55.60
2022-10-06T05:18:52.190Z,55.60
2022-10-06T05:21:27.932Z,59.10
2022-10-06T05:23:54.947Z,55.50
2022-10-06T05:26:23.645Z,55.60
2022-10-06T05:28:50.579Z,55.20
2022-10-06T05:31:22.765Z,55.10
2022-10-06T05:33:49.651Z,54.90
2022-10-06T05:36:22.167Z,54.70
2022-10-06T05:38:49.583Z,54.60
2022-10-06T05:41:19.337Z,54.90
2022-10-06T05:43:46.400Z,54.60
2022-10-06T05:46:17.672Z,54.80
2022-10-06T05:48:49.335Z,54.70
2022-10-06T05:51:17.543Z,54.70
2022-10-06T05:53:44.657Z,55.10
2022-10-06T05:56:29.038Z,54.90
2022-10-06T05:58:57.299Z,55.00
2022-10-06T06:01:32.516Z,54.70
2022-10-06T06:04:02.844Z,54.10
2022-10-06T06:06:29.559Z,54.20
2022-10-06T06:08:59.678Z,54.40
2022-10-06T06:11:31.373Z,54.10
2022-10-06T06:14:00.295Z,53.90
2022-10-06T06:16:29.092Z,53.40
2022-10-06T06:18:55.853Z,53.60
2022-10-06T06:21:22.852Z,54.00
2022-10-06T06:23:50.138Z,54.70
2022-10-06T06:26:20.334Z,55.30
2022-10-06T06:28:48.583Z,56.40
2022-10-06T06:31:20.361Z,56.30
2022-10-06T06:33:48.455Z,56.80
2022-10-06T06:36:17.244Z,57.50
2022-10-06T06:38:47.635Z,57.90
2022-10-06T06:41:22.545Z,58.40
2022-10-06T06:43:50.367Z,58.80
2022-10-06T06:46:19.366Z,59.20
2022-10-06T06:48:47.186Z,59.50
2022-10-06T06:51:14.173Z,59.90
2022-10-06T06:53:41.357Z,60.30
2022-10-06T06:56:09.249Z,60.60
2022-10-06T06:58:36.721Z,60.90
2022-10-06T07:01:15.066Z,61.30
2022-10-06T07:04:03.380Z,61.80
2022-10-06T07:06:31.432Z,61.90
2022-10-06T07:08:59.660Z,62.00
2022-10-06T07:11:31.777Z,62.20
2022-10-06T07:14:04.318Z,62.70
2022-10-06T07:16:50.587Z,62.90
2022-10-06T07:19:37.701Z,63.00
2022-10-06T07:22:26.893Z,63.20
2022-10-06T07:25:11.772Z,63.60
2022-10-06T07:27:42.633Z,63.60
2022-10-06T07:30:12.086Z,63.90
2022-10-06T07:32:38.921Z,64.20
2022-10-06T07:35:06.560Z,64.50
2022-10-06T07:37:37.882Z,64.60
2022-10-06T07:40:06.791Z,64.80
2022-10-06T07:42:47.827Z,64.80
2022-10-06T07:45:41.318Z,65.20
2022-10-06T07:48:15.203Z,65.10
2022-10-06T07:50:43.396Z,65.20
2022-10-06T07:53:10.190Z,65.40
2022-10-06T07:55:41.443Z,65.50
2022-10-06T07:58:16.406Z,65.60
2022-10-06T08:00:44.423Z,65.60
2022-10-06T08:03:14.440Z,66.00
2022-10-06T08:05:41.152Z,65.70
2022-10-06T08:08:07.804Z,65.60
2022-10-06T08:10:34.499Z,65.70
2022-10-06T08:13:05.141Z,65.40
2022-10-06T08:15:31.804Z,65.80
2022-10-06T08:18:08.737Z,65.60
2022-10-06T08:20:40.454Z,64.80
2022-10-06T08:23:08.653Z,64.90
2022-10-06T08:25:42.554Z,65.80
2022-10-06T08:28:12.896Z,65.10
2022-10-06T08:30:40.097Z,65.20
2022-10-06T08:33:06.925Z,65.70
2022-10-06T08:35:33.885Z,66.00
2022-10-06T08:38:00.547Z,65.80
2022-10-06T08:40:28.582Z,66.10
2022-10-06T08:43:01.140Z,65.30
2022-10-06T08:45:38.607Z,64.90
2022-10-06T08:48:14.132Z,65.50
2022-10-06T08:51:08.554Z,66.00
2022-10-06T08:53:35.661Z,65.80
2022-10-06T08:56:17.980Z,65.30
2022-10-06T08:58:55.708Z,65.00
2022-10-06T09:01:29.412Z,65.10
2022-10-06T09:04:01.876Z,65.00
2022-10-06T09:06:47.248Z,64.70
2022-10-06T09:09:53.746Z,64.50
2022-10-06T09:12:30.856Z,65.40
2022-10-06T09:15:33.836Z,65.30
2022-10-06T09:18:14.529Z,65.00
2022-10-06T09:20:58.307Z,63.80
2022-10-06T09:23:47.438Z,62.90
2022-10-06T09:26:22.397Z,63.10
2022-10-06T09:28:50.842Z,63.70
2022-10-06T09:31:28.722Z,63.60
2022-10-06T09:34:04.460Z,63.70
2022-10-06T09:36:31.924Z,62.60
2022-10-06T09:39:00.013Z,62.20
2022-10-06T09:41:37.254Z,62.20
2022-10-06T09:44:06.257Z,62.20
2022-10-06T09:46:35.903Z,62.30
2022-10-06T09:49:07.567Z,63.20
2022-10-06T09:51:36.401Z,62.90
2022-10-06T09:54:14.809Z,62.80
2022-10-06T09:56:47.021Z,62.20
2022-10-06T09:59:40.009Z,62.30
2022-10-06T10:02:27.190Z,62.50
2022-10-06T10:04:58.194Z,61.50
2022-10-06T10:07:26.190Z,62.10
2022-10-06T10:09:54.982Z,61.90
2022-10-06T10:12:28.071Z,61.20
2022-10-06T10:14:57.275Z,61.60
2022-10-06T10:17:32.427Z,61.80
2022-10-06T10:20:02.878Z,62.00
2022-10-06T10:22:39.410Z,62.80
2022-10-06T10:25:06.221Z,62.80
2022-10-06T10:27:54.506Z,61.10
2022-10-06T10:30:21.270Z,60.80
2022-10-06T10:33:09.347Z,61.30
2022-10-06T10:35:47.114Z,60.10
2022-10-06T10:38:20.878Z,59.20
2022-10-06T10:41:00.173Z,60.20
2022-10-06T10:43:42.260Z,58.50
2022-10-06T10:46:16.911Z,57.90
2022-10-06T10:48:53.578Z,57.20
2022-10-06T10:51:22.774Z,57.00
2022-10-06T10:54:15.217Z,56.00
2022-10-06T10:56:43.917Z,55.80
2022-10-06T10:59:34.109Z,55.20
2022-10-06T11:02:11.897Z,56.20
2022-10-06T11:04:42.868Z,55.00
2022-10-06T11:07:23.324Z,55.20
2022-10-06T11:10:10.946Z,54.70
2022-10-06T11:13:14.208Z,55.00
2022-10-06T11:15:55.910Z,57.70
2022-10-06T11:18:25.778Z,57.10
2022-10-06T11:21:00.999Z,57.50
2022-10-06T11:23:50.933Z,55.80
2022-10-06T11:26:55.149Z,54.50
2022-10-06T11:29:46.480Z,54.80
2022-10-06T11:32:27.729Z,56.20
2022-10-06T11:34:54.711Z,54.80
2022-10-06T11:37:34.883Z,54.20
2022-10-06T11:40:31.657Z,53.20
2022-10-06T11:43:41.041Z,54.00
2022-10-06T11:46:16.952Z,53.40
2022-10-06T11:48:44.840Z,54.20
2022-10-06T11:51:17.380Z,55.70
2022-10-06T11:53:45.221Z,52.80
2022-10-06T11:56:18.001Z,53.10
2022-10-06T11:58:56.587Z,52.90
2022-10-06T12:01:32.492Z,51.50
2022-10-06T12:04:08.432Z,49.90
2022-10-06T12:06:47.354Z,50.60
2022-10-06T12:09:44.725Z,51.80
2022-10-06T12:12:18.906Z,51.30
2022-10-06T12:18:09.411Z,50.60
2022-10-06T12:21:18.071Z,50.30
2022-10-06T12:23:59.426Z,50.00
2022-10-06T12:26:34.775Z,51.10
2022-10-06T12:29:42.285Z,49.50
2022-10-06T12:32:16.846Z,49.60
2022-10-06T12:34:58.564Z,48.80
2022-10-06T12:42:44.381Z,48.30
2022-10-06T12:45:16.839Z,47.90
2022-10-06T12:47:44.528Z,47.80
2022-10-06T12:50:19.424Z,49.20
2022-10-06T12:52:53.654Z,49.00
2022-10-06T12:55:49.165Z,49.90
2022-10-06T12:58:21.204Z,48.90
2022-10-06T13:00:48.244Z,47.50
2022-10-06T13:03:25.648Z,47.20
2022-10-06T13:05:56.169Z,47.30
2022-10-06T13:08:28.951Z,48.30
2022-10-06T13:11:22.154Z,48.00
2022-10-06T13:13:54.591Z,46.90
2022-10-06T13:16:33.841Z,44.80
2022-10-06T13:19:01.205Z,44.80
2022-10-06T13:21:30.459Z,45.50
2022-10-06T13:23:57.305Z,46.50
2022-10-06T13:26:27.699Z,46.10
2022-10-06T13:28:59.186Z,46.60
2022-10-06T13:31:31.554Z,46.90
2022-10-06T13:34:11.663Z,48.00
2022-10-06T13:36:41.149Z,47.10
2022-10-06T13:39:19.016Z,48.30
2022-10-06T13:41:46.948Z,47.80
2022-10-06T13:44:14.205Z,47.50
2022-10-06T13:46:49.443Z,47.50
2022-10-06T13:49:31.174Z,47.20
2022-10-06T13:52:03.395Z,47.40
2022-10-06T13:54:44.520Z,46.80
2022-10-06T13:57:43.917Z,46.90
2022-10-06T14:00:22.498Z,46.10
2022-10-06T14:02:55.469Z,47.60
2022-10-06T14:05:30.201Z,46.90
2022-10-06T14:08:27.421Z,46.40
2022-10-06T14:10:59.381Z,46.40
2022-10-06T14:13:48.841Z,45.90
2022-10-06T14:16:27.014Z,47.10
2022-10-06T14:21:45.170Z,46.40
2022-10-06T14:26:49.751Z,45.90
2022-10-06T14:29:17.651Z,44.70
2022-10-06T14:31:45.323Z,45.70
2022-10-06T14:34:18.213Z,45.50
2022-10-06T14:36:55.026Z,44.80
2022-10-06T14:39:21.710Z,44.40
2022-10-06T14:41:48.554Z,44.20
2022-10-06T14:44:16.076Z,45.20
2022-10-06T14:46:48.030Z,45.60
2022-10-06T14:49:15.111Z,45.50
2022-10-06T14:51:43.218Z,45.60
2022-10-06T14:54:11.244Z,46.10
2022-10-06T14:56:39.426Z,47.20
2022-10-06T14:59:08.732Z,46.40
2022-10-06T15:01:36.886Z,46.40
2022-10-06T15:04:20.962Z,47.20
2022-10-06T15:07:06.964Z,47.00
2022-10-06T15:09:33.750Z,47.20
2022-10-06T15:12:00.832Z,47.00
2022-10-06T15:14:28.481Z,48.00
2022-10-06T15:16:55.968Z,47.40
2022-10-06T15:19:22.621Z,47.70
2022-10-06T15:21:49.358Z,47.80
2022-10-06T15:24:18.359Z,46.70
2022-10-06T15:27:04.638Z,46.20
2022-10-06T15:29:34.726Z,46.60
2022-10-06T15:32:02.996Z,46.40
2022-10-06T15:34:33.403Z,46.70
2022-10-06T15:37:00.613Z,47.30
2022-10-06T15:39:30.216Z,46.90
2022-10-06T15:41:57.939Z,46.30
2022-10-06T15:44:24.996Z,46.30
2022-10-06T15:46:56.290Z,46.70
2022-10-06T15:49:32.853Z,45.60
2022-10-06T15:52:02.996Z,45.90
2022-10-06T15:54:38.542Z,44.80
2022-10-06T15:57:08.754Z,45.00
2022-10-06T15:59:36.146Z,45.00
2022-10-06T16:02:07.255Z,44.80
2022-10-06T16:04:39.217Z,45.40
2022-10-06T16:07:07.918Z,44.60
2022-10-06T16:09:42.036Z,45.20
2022-10-06T16:12:11.811Z,45.10
2022-10-06T16:14:38.450Z,45.20
2022-10-06T16:17:06.551Z,46.90
2022-10-06T16:19:40.082Z,45.20
2022-10-06T16:22:08.619Z,45.30
2022-10-06T16:24:35.259Z,46.10
2022-10-06T16:27:02.323Z,46.30
2022-10-06T16:29:29.253Z,46.20
2022-10-06T16:31:56.319Z,46.40
2022-10-06T16:34:23.144Z,46.70
2022-10-06T16:36:49.828Z,47.20
2022-10-06T16:39:21.648Z,47.30
2022-10-06T16:41:49.246Z,47.50
2022-10-06T16:44:16.364Z,47.60
2022-10-06T16:46:43.511Z,47.90
2022-10-06T16:49:10.366Z,48.60
2022-10-06T16:51:39.433Z,48.50
2022-10-06T16:54:09.006Z,48.50
2022-10-06T16:56:37.083Z,49.20
2022-10-06T16:59:12.761Z,48.80
2022-10-06T17:01:39.619Z,49.20
2022-10-06T17:04:18.430Z,50.00
2022-10-06T17:06:53.081Z,50.00
2022-10-06T17:09:28.325Z,49.80
2022-10-06T17:11:57.507Z,50.30
2022-10-06T17:14:25.099Z,51.20
2022-10-06T17:16:53.376Z,51.60
2022-10-06T17:19:21.731Z,51.40
2022-10-06T17:21:52.729Z,51.50
2022-10-06T17:24:25.527Z,51.60
2022-10-06T17:26:52.815Z,51.70
2022-10-06T17:29:21.688Z,51.70
2022-10-06T17:31:50.570Z,52.20
2022-10-06T17:34:21.474Z,52.30
2022-10-06T17:36:50.835Z,52.60
2022-10-06T17:39:22.760Z,52.70
2022-10-06T17:41:52.593Z,52.90
2022-10-06T17:44:27.276Z,52.70
2022-10-06T17:46:57.754Z,54.00
2022-10-06T17:49:25.098Z,53.80
2022-10-06T17:51:54.101Z,53.50
2022-10-06T17:54:22.821Z,53.30
2022-10-06T17:56:51.499Z,53.50
2022-10-06T17:59:20.045Z,53.70
2022-10-06T18:01:46.871Z,53.40
2022-10-06T18:04:17.382Z,53.50
2022-10-06T18:06:45.537Z,53.70
2022-10-06T18:09:12.862Z,53.90
2022-10-06T18:11:41.983Z,53.90
2022-10-06T18:14:17.094Z,54.00
2022-10-06T18:16:46.625Z,54.20
2022-10-06T18:19:16.136Z,53.90
2022-10-06T18:21:44.850Z,54.20
2022-10-06T18:24:20.928Z,54.10
2022-10-06T18:26:51.949Z,53.90
2022-10-06T18:29:20.993Z,53.90
2022-10-06T18:31:52.522Z,54.10
2022-10-06T18:37:06.014Z,54.10
2022-10-06T18:39:33.536Z,54.20
2022-10-06T18:42:03.633Z,54.40
2022-10-06T18:44:48.918Z,54.10
2022-10-06T18:47:34.949Z,54.00
2022-10-06T18:50:01.678Z,54.10
2022-10-06T18:52:28.355Z,54.40
2022-10-06T18:54:55.091Z,54.50
2022-10-06T18:57:27.267Z,54.60
2022-10-06T18:59:54.441Z,54.40
2022-10-06T19:02:21.248Z,54.10
2022-10-06T19:04:48.418Z,54.10
2022-10-06T19:07:15.183Z,53.70
2022-10-06T19:09:46.434Z,53.90
2022-10-06T19:12:14.295Z,53.60
2022-10-06T19:14:47.251Z,53.70
2022-10-06T19:17:15.339Z,53.70
2022-10-06T19:19:51.106Z,54.00
2022-10-06T19:22:21.567Z,53.80
2022-10-06T19:24:48.628Z,53.90
2022-10-06T19:27:20.604Z,53.80
2022-10-06T19:29:54.251Z,53.90
2022-10-06T19:32:24.968Z,53.80
2022-10-06T19:34:52.251Z,53.90
2022-10-06T19:37:19.457Z,54.20
2022-10-06T19:39:48.081Z,54.30
2022-10-06T19:42:34.589Z,54.60
2022-10-06T19:45:01.684Z,54.50
2022-10-06T19:47:28.857Z,54.60
2022-10-06T19:50:00.891Z,54.60
2022-10-06T19:52:31.036Z,55.00
2022-10-06T19:54:57.836Z,55.20
2022-10-06T19:57:25.104Z,55.10
2022-10-06T19:59:51.807Z,55.20
2022-10-06T20:02:18.455Z,55.30
2022-10-06T20:04:45.481Z,55.60
2022-10-06T20:07:12.414Z,55.40
2022-10-06T20:09:39.131Z,55.30
2022-10-06T20:12:08.794Z,55.20
2022-10-06T20:14:36.258Z,55.00
2022-10-06T20:17:03.068Z,55.50
2022-10-06T20:19:29.823Z,55.00
2022-10-06T20:21:56.705Z,56.00
2022-10-06T20:24:24.735Z,54.90
2022-10-06T20:26:52.913Z,54.90
2022-10-06T20:29:22.967Z,55.10
2022-10-06T20:31:55.724Z,55.00
2022-10-06T20:34:24.945Z,55.00
2022-10-06T20:36:55.968Z,54.90
2022-10-06T20:39:41.890Z,55.00
2022-10-06T20:42:14.848Z,55.50
2022-10-06T20:44:43.099Z,55.60
2022-10-06T20:47:11.315Z,55.40
2022-10-06T20:49:38.331Z,55.50
2022-10-06T20:52:06.144Z,55.80
2022-10-06T20:54:35.969Z,55.90
2022-10-06T20:57:05.162Z,55.90
2022-10-06T20:59:35.377Z,55.70
2022-10-06T21:02:03.535Z,55.80
2022-10-06T21:04:30.702Z,54.90
2022-10-06T21:06:57.816Z,54.80
2022-10-06T21:09:24.728Z,54.80
2022-10-06T21:11:51.990Z,55.10
2022-10-06T21:14:18.830Z,55.00
2022-10-06T21:16:47.770Z,54.80
2022-10-06T21:19:16.781Z,55.10
2022-10-06T21:21:49.875Z,54.70
2022-10-06T21:24:17.249Z,55.10
2022-10-06T21:26:44.057Z,54.80
2022-10-06T21:29:15.521Z,54.80
2022-10-06T21:31:43.621Z,55.10
2022-10-06T21:34:10.897Z,54.80
2022-10-06T21:36:38.284Z,55.50
2022-10-06T21:39:05.893Z,54.90
2022-10-06T21:41:40.993Z,55.00
2022-10-06T21:44:10.604Z,55.20
2022-10-06T21:46:54.784Z,55.20
2022-10-06T21:49:23.817Z,55.10
2022-10-06T21:51:53.296Z,55.10
2022-10-06T21:54:21.641Z,55.40
2022-10-06T21:56:48.880Z,54.80
2022-10-06T21:59:15.750Z,54.70
2022-10-06T22:01:44.641Z,54.70
2022-10-06T22:04:14.133Z,54.70
2022-10-06T22:06:43.616Z,54.70
2022-10-06T22:09:14.517Z,55.00
2022-10-06T22:11:42.172Z,54.80
2022-10-06T22:14:12.466Z,54.80
2022-10-06T22:16:39.389Z,54.80
2022-10-06T22:19:08.942Z,54.80
2022-10-06T22:21:50.538Z,54.80
2022-10-06T22:24:21.368Z,54.80
2022-10-06T22:26:49.244Z,55.00
2022-10-06T22:29:17.574Z,55.00
2022-10-06T22:31:45.882Z,54.80
2022-10-06T22:34:15.883Z,54.90
2022-10-06T22:36:42.600Z,55.00
2022-10-06T22:39:09.383Z,55.10
2022-10-06T22:41:36.484Z,55.20
2022-10-06T22:44:03.571Z,55.20
2022-10-06T22:46:32.819Z,55.40
2022-10-06T22:48:59.781Z,55.40
2022-10-06T22:51:26.932Z,55.50
2022-10-06T22:53:58.214Z,55.80
2022-10-06T22:56:27.376Z,55.80
2022-10-06T22:58:54.454Z,56.00
2022-10-06T23:01:21.193Z,56.10
2022-10-06T23:03:48.328Z,56.10
2022-10-06T23:06:17.475Z,56.20
2022-10-06T23:08:44.673Z,56.10
2022-10-06T23:11:17.310Z,56.20
2022-10-06T23:13:44.767Z,56.10
2022-10-06T23:16:16.392Z,56.20
2022-10-06T23:18:44.439Z,56.30
2022-10-06T23:21:21.286Z,56.20
2022-10-06T23:23:49.936Z,56.40
2022-10-06T23:26:18.953Z,56.90
2022-10-06T23:28:49.872Z,56.30
2022-10-06T23:31:16.814Z,56.40
2022-10-06T23:33:43.631Z,56.50
2022-10-06T23:36:12.143Z,56.80
2022-10-06T23:38:39.396Z,56.60
2022-10-06T23:41:06.919Z,56.70
2022-10-06T23:43:34.233Z,56.50
2022-10-06T23:46:01.855Z,56.60
2022-10-06T23:48:29.007Z,56.50
2022-10-06T23:51:06.976Z,56.70
2022-10-06T23:53:34.902Z,56.60
2022-10-06T23:56:01.991Z,56.60
2022-10-06T23:58:28.882Z,56.80
